Latest Weather Observations for Melbourne Airport

IDV60901

Issued at 11:21 pm EST Monday 24 April 2017 (issued every 10 minutes, with the page automatically refreshed every 10 minutes)

About weather observations | Map of Melbourne area stations | Latest observations for Melbourne area | Other Formats
Station Details ID: 086282 Name: MELBOURNE AIRPORT Lat: -37.67 Lon: 144.83 Height: 113.4 m
Data from the previous 72 hours. | See also: Recent months at Melbourne Airport
Date/Time
EST
Temp
°C
App
Temp
°C
Dew
Point
°C
Rel
Hum
%
Delta-T
°C
Wind Press
QNH
hPa
Press
MSL
hPa
Rain since
9am
mm
Dir  Spd
km/h
Gust
km/h
Spd
kts
Gust
kts
24/11:13pm 16.8 16.6 15.8 94 0.6 NW 11 15 6 8 1011.5 1011.3 2.8
24/11:00pm 17.1 17.2 15.6 91 0.9 NNW 9 13 5 7 1011.5 1011.3 2.0
24/10:30pm 16.8 18.8 16.1 96 0.4 CALM 0 2 0 1 1012.0 1011.8 0.8
24/10:00pm 16.6 18.2 15.9 96 0.4 SSE 2 7 1 4 1012.3 1012.2 0.8
24/09:30pm 16.7 17.3 15.9 95 0.5 S 7 11 4 6 1012.4 1012.3 0.4
24/09:00pm 17.5 18.2 16.0 91 0.9 SSW 7 11 4 6 1012.8 1012.7 0.4
24/08:30pm 17.7 17.8 15.5 87 1.3 SSW 9 13 5 7 1013.1 1013.0 0.4
24/08:00pm 18.7 19.2 14.9 78 2.2 NNE 6 11 3 6 1013.2 1013.1 0.4
24/07:30pm 18.5 19.5 15.3 81 1.9 WSW 4 7 2 4 1013.5 1013.4 0.4
24/07:00pm 19.3 19.7 15.2 77 2.4 NE 7 9 4 5 1013.6 1013.5 0.0
24/06:30pm 19.8 19.8 14.3 70 3.2 NNE 7 13 4 7 1013.5 1013.4 0.0
24/06:00pm 20.4 19.5 13.6 65 3.9 N 11 17 6 9 1013.8 1013.7 0.0
24/05:30pm 21.3 18.8 13.5 61 4.5 N 19 28 10 15 1013.8 1013.7 0.0
24/05:00pm 21.3 17.8 13.5 61 4.5 N 24 32 13 17 1014.1 1014.0 0.0
24/04:30pm 21.8 18.7 13.3 58 4.9 NNE 22 30 12 16 1014.3 1014.2 0.0
24/04:00pm 22.0 18.5 13.4 58 5.0 N 24 32 13 17 1014.3 1014.2 0.0
24/03:30pm 22.0 19.7 14.0 60 4.7 NNE 19 30 10 16 1014.8 1014.7 0.0
24/03:00pm 22.9 20.6 14.1 57 5.2 NNE 19 26 10 14 1015.1 1015.0 0.0
24/02:30pm 23.0 20.7 14.2 57 5.2 NNE 19 28 10 15 1015.3 1015.2 0.0
24/02:00pm 22.4 19.7 14.6 61 4.6 NNE 22 30 12 16 1015.7 1015.6 0.0
24/01:30pm 22.7 20.0 14.6 60 4.8 N 22 28 12 15 1016.1 1016.0 0.0
24/01:00pm 21.6 18.8 14.3 63 4.3 NNE 22 32 12 17 1016.7 1016.6 0.0
24/12:30pm 22.4 19.1 14.0 59 4.9 N 24 33 13 18 1017.2 1017.1 0.0
24/12:00pm 21.9 18.6 14.0 61 4.6 NNE 24 32 13 17 1017.7 1017.6 0.0
24/11:30am 21.8 18.2 14.1 61 4.5 NNE 26 32 14 17 1018.4 1018.2 0.0
24/11:00am 21.2 18.8 14.4 65 4.0 NNE 20 30 11 16 1018.9 1018.7 0.0
24/10:30am 19.6 18.7 14.8 74 2.8 NNE 13 17 7 9 1019.6 1019.5 0.0
24/10:00am 18.3 18.3 15.2 82 1.8 NNE 9 15 5 8 1020.2 1020.1 0.0
24/09:30am 17.4 16.2 15.0 86 1.4 NNE 15 19 8 10 1020.4 1020.3 0.0
24/09:00am 15.9 14.2 14.7 93 0.7 NNE 17 20 9 11 1020.4 1020.3 3.6
24/08:50am 15.6 14.3 14.7 94 0.5 NNE 15 19 8 10 1020.5 1020.4 3.6
24/08:41am 15.5 13.8 14.8 96 0.4 NE 17 24 9 13 1020.6 1020.5 3.6
24/08:30am 15.3 13.6 14.8 97 0.3 NNE 17 24 9 13 1020.8 1020.7 3.6
24/08:22am 15.2 13.9 14.7 97 0.3 NNW 15 19 8 10 1021.1 1021.0 3.4
24/08:15am 15.3 14.4 14.8 97 0.3 NW 13 19 7 10 1021.4 1021.3 0.8
24/08:11am 15.5 15.3 14.8 96 0.4 NW 9 15 5 8 1021.5 1021.4 0.4
24/08:00am 15.5 15.3 14.8 96 0.4 NW 9 11 5 6 1021.1 1021.0 0.0
24/07:56am 15.6 15.4 14.7 94 0.5 NNW 9 11 5 6 1021.1 1021.0 0.0
24/07:30am 15.5 17.1 14.8 96 0.4 CALM 0 0 0 0 1021.0 1020.9 0.0
24/07:17am 15.4 16.9 14.7 96 0.4 CALM 0 0 0 0 1021.0 1020.9 0.0
24/07:00am 15.0 16.4 14.5 97 0.3 CALM 0 0 0 0 1021.0 1020.9 0.0
24/06:50am 14.9 16.3 14.4 97 0.3 CALM 0 0 0 0 1020.9 1020.8 0.0
24/06:30am 15.3 16.9 14.8 97 0.3 CALM 0 0 0 0 1020.9 1020.8 0.0
24/06:00am 15.6 17.2 14.9 96 0.4 CALM 0 0 0 0 1020.9 1020.8 0.0
24/05:30am 15.5 17.2 15.2 98 0.2 CALM 0 0 0 0 1021.0 1020.9 0.0
24/05:00am 15.5 17.1 15.0 97 0.3 CALM 0 0 0 0 1021.1 1021.0 0.0
24/04:30am 15.4 17.0 14.9 97 0.3 CALM 0 0 0 0 1021.0 1020.9 0.0
24/04:00am 15.4 17.1 15.1 98 0.2 CALM 0 0 0 0 1021.1 1021.0 0.0
24/03:30am 15.1 16.7 14.8 98 0.2 CALM 0 0 0 0 1021.2 1021.1 0.0
24/03:14am 15.1 16.6 14.6 97 0.3 CALM 0 0 0 0 1021.2 1021.1 0.0
24/03:00am 15.1 16.6 14.6 97 0.3 CALM 0 0 0 0 1021.4 1021.3 0.0
24/02:30am 15.4 16.8 14.5 94 0.5 CALM 0 0 0 0 1021.5 1021.4 0.0
24/02:00am 15.6 17.2 14.9 96 0.4 CALM 0 0 0 0 1021.7 1021.6 0.0
24/01:30am 15.5 17.0 14.6 94 0.5 CALM 0 0 0 0 1021.9 1021.8 0.0
24/01:00am 16.0 17.6 15.0 94 0.6 CALM 0 0 0 0 1022.2 1022.1 0.0
24/12:30am 16.0 17.6 15.0 94 0.6 CALM 0 0 0 0 1022.4 1022.3 0.0
24/12:00am 16.1 17.5 14.5 90 0.9 CALM 0 0 0 0 1022.6 1022.5 0.0
 
Date/Time
EST
Temp
°C
App
Temp
°C
Dew
Point
°C
Rel
Hum
%
Delta-T
°C
Wind Press
QNH
hPa
Press
MSL
hPa
Rain since
9am
mm
Dir  Spd
km/h
Gust
km/h
Spd
kts
Gust
kts
23/11:30pm 16.0 16.9 15.0 94 0.6 SSW 4 7 2 4 1022.9 1022.8 0.0
23/11:00pm 16.1 16.4 14.9 93 0.7 SSW 7 9 4 5 1023.2 1023.1 0.0
23/10:30pm 16.0 15.5 15.0 94 0.6 SW 11 13 6 7 1023.6 1023.5 0.0
23/10:00pm 16.1 16.7 15.2 94 0.5 SSW 6 7 3 4 1023.7 1023.6 0.0
23/09:30pm 16.3 16.7 15.3 94 0.6 SW 7 9 4 5 1023.9 1023.8 0.0
23/09:00pm 16.4 17.0 15.2 93 0.7 SW 6 7 3 4 1024.0 1023.9 0.0
23/08:30pm 16.4 16.7 15.0 91 0.8 WSW 7 9 4 5 1024.0 1023.9 0.0
23/08:00pm 16.2 16.1 15.0 93 0.7 SSW 9 11 5 6 1023.9 1023.8 0.0
23/07:30pm 16.6 16.1 14.9 90 1.0 S 11 15 6 8 1023.7 1023.6 0.0
23/07:00pm 16.6 15.3 14.7 88 1.1 S 15 19 8 10 1023.7 1023.6 0.0
23/06:30pm 16.3 15.2 15.4 94 0.5 S 15 20 8 11 1023.3 1023.2 0.0
23/06:07pm 16.5 15.4 15.3 93 0.7 S 15 19 8 10 1023.0 1022.9 0.0
23/06:00pm 16.3 15.2 15.3 94 0.6 S 15 19 8 10 1023.0 1022.9 0.0
23/05:30pm 17.1 15.1 14.9 87 1.3 S 19 26 10 14 1022.7 1022.6 0.0
23/05:00pm 18.2 15.5 14.6 79 2.1 S 22 28 12 15 1022.5 1022.4 0.0
23/04:30pm 19.6 17.7 14.3 71 3.1 SSE 17 20 9 11 1022.2 1022.1 0.0
23/04:00pm 20.1 17.8 14.2 69 3.4 S 19 24 10 13 1022.2 1022.1 0.0
23/03:30pm 21.3 19.8 11.8 54 5.3 S 11 11 6 6 1022.0 1021.9 0.0
23/03:00pm 20.8 20.0 11.8 56 5.0 SW 7 11 4 6 1022.1 1022.0 0.0
23/02:30pm 20.9 21.0 12.6 59 4.7 WSW 4 7 2 4 1022.3 1022.2 0.0
23/02:00pm 20.5 19.6 12.7 61 4.4 SW 9 15 5 8 1022.4 1022.3 0.0
23/01:30pm 20.5 19.8 13.3 63 4.1 SSW 9 15 5 8 1022.5 1022.4 0.0
23/01:00pm 21.1 20.4 13.2 60 4.5 SE 9 13 5 7 1023.0 1022.9 0.0
23/12:30pm 20.6 20.9 13.5 63 4.1 WSW 4 11 2 6 1023.4 1023.3 0.0
23/12:00pm 20.4 19.9 12.6 61 4.4 ESE 7 11 4 6 1023.7 1023.6 0.0
23/11:30am 20.3 19.8 12.7 61 4.3 NW 7 11 4 6 1024.3 1024.2 0.0
23/11:00am 19.7 19.2 13.8 69 3.4 NNW 9 13 5 7 1024.6 1024.5 0.0
23/10:30am 19.8 19.3 13.7 68 3.5 WNW 9 15 5 8 1024.7 1024.6 0.0
23/10:00am 18.4 18.3 14.0 75 2.5 WNW 7 11 4 6 1024.8 1024.7 0.0
23/09:30am 17.8 17.4 14.1 79 2.1 WNW 9 13 5 7 1025.1 1025.0 0.0
23/09:00am 17.5 16.7 14.0 80 2.0 N 11 13 6 7 1025.1 1025.0 1.6
23/08:30am 16.2 15.4 14.1 87 1.2 N 11 13 6 7 1024.8 1024.7 1.6
23/08:00am 15.1 13.4 13.5 90 0.9 N 15 17 8 9 1024.7 1024.6 1.6
23/07:30am 14.2 12.8 13.3 94 0.5 N 13 17 7 9 1024.4 1024.3 1.6
23/07:00am 13.8 13.1 13.1 96 0.4 N 9 11 5 6 1024.2 1024.1 1.6
23/06:30am 14.6 12.8 13.2 91 0.8 N 15 17 8 9 1024.1 1024.0 1.6
23/06:00am 14.3 12.5 13.2 93 0.6 N 15 17 8 9 1023.9 1023.8 1.6
23/05:30am 14.1 12.4 12.6 91 0.8 NW 13 15 7 8 1023.7 1023.6 1.6
23/05:00am 14.2 13.0 12.9 92 0.7 NNW 11 13 6 7 1023.6 1023.5 1.6
23/04:30am 13.3 12.4 12.6 95 0.4 NNW 9 9 5 5 1023.5 1023.4 1.6
23/04:00am 14.2 13.5 13.1 93 0.6 NW 9 11 5 6 1023.5 1023.4 1.6
23/03:30am 14.8 14.0 14.1 96 0.4 N 11 13 6 7 1023.7 1023.6 1.6
23/03:00am 14.6 13.5 14.2 97 0.2 N 13 17 7 9 1023.8 1023.7 1.6
23/02:30am 14.7 13.6 14.2 97 0.3 N 13 15 7 8 1023.8 1023.7 1.6
23/02:00am 14.7 14.0 14.3 97 0.2 N 11 13 6 7 1024.0 1023.9 1.6
23/01:30am 14.3 14.3 14.1 99 0.1 N 7 9 4 5 1023.8 1023.7 1.6
23/01:00am 15.4 15.3 14.9 97 0.3 N 9 11 5 6 1023.9 1023.8 1.6
23/12:30am 15.5 17.1 15.0 97 0.3 CALM 0 4 0 2 1024.0 1023.9 1.6
23/12:00am 15.6 15.9 15.1 97 0.3 N 7 9 4 5 1024.1 1024.0 1.6
 
Date/Time
EST
Temp
°C
App
Temp
°C
Dew
Point
°C
Rel
Hum
%
Delta-T
°C
Wind Press
QNH
hPa
Press
MSL
hPa
Rain since
9am
mm
Dir  Spd
km/h
Gust
km/h
Spd
kts
Gust
kts
22/11:30pm 15.8 15.9 15.5 98 0.2 N 9 9 5 5 1024.1 1024.0 1.6
22/11:00pm 15.9 16.5 15.2 96 0.4 NNW 6 7 3 4 1024.3 1024.2 1.6
22/10:30pm 15.9 16.3 15.4 97 0.3 N 7 9 4 5 1024.5 1024.4 1.6
22/10:00pm 16.1 16.7 15.2 94 0.5 WNW 6 7 3 4 1024.5 1024.4 1.0
22/09:30pm 16.6 17.1 15.0 90 0.9 WSW 6 11 3 6 1024.4 1024.3 0.6
22/09:00pm 16.7 15.9 15.0 90 1.0 SW 13 15 7 8 1024.2 1024.1 0.6
22/08:30pm 17.1 16.2 14.9 87 1.3 SW 13 17 7 9 1023.9 1023.8 0.6
22/08:00pm 17.2 17.9 16.0 93 0.7 W 7 11 4 6 1023.6 1023.5 0.6
22/07:30pm 18.0 18.0 15.1 83 1.7 SW 9 13 5 7 1023.2 1023.1 0.0
22/07:00pm 18.1 17.3 15.0 82 1.8 N 13 15 7 8 1022.9 1022.8 0.0
22/06:30pm 18.3 17.8 14.9 80 2.0 NNE 11 15 6 8 1022.6 1022.5 0.0
22/06:00pm 18.9 18.0 14.8 77 2.4 N 13 20 7 11 1022.4 1022.3 0.0
22/05:30pm 19.2 19.0 14.7 75 2.6 NNW 9 20 5 11 1022.2 1022.1 0.0
22/05:00pm 19.4 16.7 14.6 74 2.8 N 22 30 12 16 1022.0 1021.9 0.0
22/04:30pm 20.5 16.9 14.3 67 3.6 N 26 33 14 18 1021.7 1021.6 0.0
22/04:00pm 20.5 16.9 14.1 66 3.7 N 26 35 14 19 1021.6 1021.5 0.0
22/03:30pm 21.7 17.7 14.2 62 4.4 N 28 35 15 19 1021.5 1021.4 0.0
22/03:00pm 21.6 17.7 14.4 63 4.2 N 28 33 15 18 1021.6 1021.5 0.0
22/02:30pm 21.0 16.8 14.7 67 3.7 N 30 35 16 19 1021.7 1021.6 0.0
22/02:00pm 20.6 16.4 14.6 68 3.5 N 30 37 16 20 1021.9 1021.8 0.0
22/01:30pm 20.3 15.7 14.5 69 3.4 N 32 37 17 20 1022.1 1022.0 0.0
22/01:00pm 21.0 16.8 14.7 67 3.7 N 30 37 16 20 1022.4 1022.3 0.0
22/12:30pm 19.5 15.2 14.3 72 3.0 N 30 37 16 20 1022.9 1022.8 0.0
22/12:00pm 18.7 13.9 14.0 74 2.7 N 32 37 17 20 1023.2 1023.1 0.0
22/11:30am 18.5 13.2 14.3 76 2.4 N 35 41 19 22 1023.6 1023.5 0.0
22/11:00am 18.3 13.6 14.3 77 2.3 N 32 41 17 22 1023.8 1023.7 0.0
22/10:30am 18.8 13.5 14.3 75 2.6 N 35 43 19 23 1023.9 1023.8 0.0
22/10:00am 18.2 13.5 14.4 78 2.2 N 32 39 17 21 1024.0 1023.9 0.0
22/09:30am 17.3 12.6 14.2 82 1.8 N 32 41 17 22 1023.9 1023.8 0.0
22/09:00am 17.1 12.7 14.1 82 1.7 N 30 35 16 19 1023.8 1023.7 8.4
22/08:30am 16.7 12.7 14.1 85 1.5 N 28 35 15 19 1023.7 1023.6 8.4
22/08:00am 16.4 12.3 13.9 85 1.4 N 28 37 15 20 1023.4 1023.3 8.4
22/07:30am 15.6 11.4 13.6 88 1.1 N 28 35 15 19 1022.9 1022.8 8.4
22/07:00am 15.4 11.2 13.6 89 1.0 N 28 33 15 18 1022.5 1022.4 8.4
22/06:30am 15.2 11.1 13.8 91 0.8 N 28 35 15 19 1022.2 1022.1 8.4
22/06:00am 15.5 11.8 13.9 90 0.9 N 26 33 14 18 1022.2 1022.1 8.4
22/05:30am 15.6 11.2 14.0 90 0.9 N 30 37 16 20 1021.9 1021.8 8.4
22/05:00am 15.7 11.6 13.9 89 1.0 N 28 35 15 19 1021.7 1021.6 8.4
22/04:30am 15.7 11.3 14.1 90 0.9 N 30 37 16 20 1021.7 1021.6 8.4
22/04:00am 15.7 10.9 14.1 90 0.9 N 32 39 17 21 1021.5 1021.4 8.4
22/03:30am 15.8 11.4 14.2 90 0.9 N 30 37 16 20 1021.6 1021.5 8.4
22/03:00am 15.8 11.1 14.2 90 0.9 N 32 37 17 20 1021.6 1021.5 8.4
22/02:30am 16.1 12.5 14.3 89 1.0 N 26 35 14 19 1021.6 1021.5 8.4
22/02:00am 16.2 12.6 14.3 88 1.1 N 26 35 14 19 1021.6 1021.5 8.4
22/01:30am 16.1 12.5 14.3 89 1.0 N 26 30 14 16 1021.8 1021.7 8.4
22/01:00am 16.2 13.0 14.3 88 1.1 N 24 30 13 16 1021.8 1021.7 8.4
22/12:30am 16.5 11.7 14.0 85 1.4 N 32 46 17 25 1021.9 1021.8 8.4
22/12:00am 16.7 12.3 14.1 85 1.5 N 30 39 16 21 1021.7 1021.6 8.4
 
Date/Time
EST
Temp
°C
App
Temp
°C
Dew
Point
°C
Rel
Hum
%
Delta-T
°C
Wind Press
QNH
hPa
Press
MSL
hPa
Rain since
9am
mm
Dir  Spd
km/h
Gust
km/h
Spd
kts
Gust
kts
21/11:30pm 16.7 11.4 14.3 86 1.4 N 35 46 19 25 1021.6 1021.5 8.4

Latest Capital City Observations: Canberra | Sydney | Melbourne | Brisbane | Adelaide | Perth | Hobart | Darwin

Other Formats:

Comma delimited format used in spreadsheet applications
http://www.bom.gov.au/fwo/IDV60901/IDV60901.94866.axf

JavaScript Object Notation format (JSON) in row-major order
http://www.bom.gov.au/fwo/IDV60901/IDV60901.94866.json